sensor_id;sensor_type;location;lat;lon;timestamp;temperature;humidity
31769;DHT22;18342;52.132;21.048;2022-11-12T00:01:18;10.30;99.90
31769;DHT22;18342;52.132;21.048;2022-11-12T00:03:43;10.30;99.90
31769;DHT22;18342;52.132;21.048;2022-11-12T00:06:09;10.30;99.90
31769;DHT22;18342;52.132;21.048;2022-11-12T00:08:35;10.30;99.90
31769;DHT22;18342;52.132;21.048;2022-11-12T00:11:01;10.30;99.90
31769;DHT22;18342;52.132;21.048;2022-11-12T00:13:27;10.30;99.90
31769;DHT22;18342;52.132;21.048;2022-11-12T00:15:52;10.30;99.90
31769;DHT22;18342;52.132;21.048;2022-11-12T00:18:18;10.30;99.90
31769;DHT22;18342;52.132;21.048;2022-11-12T00:20:44;10.30;99.90
31769;DHT22;18342;52.132;21.048;2022-11-12T00:23:10;10.30;99.90
31769;DHT22;18342;52.132;21.048;2022-11-12T00:25:36;10.30;99.90
31769;DHT22;18342;52.132;21.048;2022-11-12T00:28:04;10.30;99.90
31769;DHT22;18342;52.132;21.048;2022-11-12T00:30:30;10.40;99.90
31769;DHT22;18342;52.132;21.048;2022-11-12T00:32:56;10.40;99.90
31769;DHT22;18342;52.132;21.048;2022-11-12T00:35:21;10.40;99.90
31769;DHT22;18342;52.132;21.048;2022-11-12T00:37:53;10.40;99.90
31769;DHT22;18342;52.132;21.048;2022-11-12T00:40:19;10.40;99.90
31769;DHT22;18342;52.132;21.048;2022-11-12T00:42:44;10.40;99.90
31769;DHT22;18342;52.132;21.048;2022-11-12T00:45:10;10.40;99.90
31769;DHT22;18342;52.132;21.048;2022-11-12T00:47:36;10.40;99.90
31769;DHT22;18342;52.132;21.048;2022-11-12T00:50:01;10.40;99.90
31769;DHT22;18342;52.132;21.048;2022-11-12T00:52:27;10.40;99.90
31769;DHT22;18342;52.132;21.048;2022-11-12T00:54:53;10.40;99.90
31769;DHT22;18342;52.132;21.048;2022-11-12T00:57:18;10.40;99.90
31769;DHT22;18342;52.132;21.048;2022-11-12T00:59:44;10.40;99.90
31769;DHT22;18342;52.132;21.048;2022-11-12T01:02:10;10.40;99.90
31769;DHT22;18342;52.132;21.048;2022-11-12T01:04:35;10.40;99.90
31769;DHT22;18342;52.132;21.048;2022-11-12T01:07:01;10.40;99.90
31769;DHT22;18342;52.132;21.048;2022-11-12T01:09:27;10.40;99.90
31769;DHT22;18342;52.132;21.048;2022-11-12T01:11:52;10.40;99.90
31769;DHT22;18342;52.132;21.048;2022-11-12T01:14:18;10.40;99.90
31769;DHT22;18342;52.132;21.048;2022-11-12T01:16:43;10.40;99.90
31769;DHT22;18342;52.132;21.048;2022-11-12T01:19:11;10.40;99.90
31769;DHT22;18342;52.132;21.048;2022-11-12T01:21:40;10.40;99.90
31769;DHT22;18342;52.132;21.048;2022-11-12T01:24:07;10.40;99.90
31769;DHT22;18342;52.132;21.048;2022-11-12T01:26:33;10.40;99.90
31769;DHT22;18342;52.132;21.048;2022-11-12T01:28:59;10.40;99.90
31769;DHT22;18342;52.132;21.048;2022-11-12T01:31:27;10.40;99.90
31769;DHT22;18342;52.132;21.048;2022-11-12T01:33:56;10.40;99.90
31769;DHT22;18342;52.132;21.048;2022-11-12T01:36:23;10.40;99.90
31769;DHT22;18342;52.132;21.048;2022-11-12T01:38:50;10.40;99.90
31769;DHT22;18342;52.132;21.048;2022-11-12T01:41:19;10.40;99.90
31769;DHT22;18342;52.132;21.048;2022-11-12T01:43:45;10.40;99.90
31769;DHT22;18342;52.132;21.048;2022-11-12T01:46:19;10.40;99.90
31769;DHT22;18342;52.132;21.048;2022-11-12T01:49:01;10.40;99.90
31769;DHT22;18342;52.132;21.048;2022-11-12T01:51:35;10.40;99.90
31769;DHT22;18342;52.132;21.048;2022-11-12T01:54:07;10.40;99.90
31769;DHT22;18342;52.132;21.048;2022-11-12T01:56:34;10.40;99.90
31769;DHT22;18342;52.132;21.048;2022-11-12T01:59:06;10.40;99.90
31769;DHT22;18342;52.132;21.048;2022-11-12T02:01:33;10.40;99.90
31769;DHT22;18342;52.132;21.048;2022-11-12T02:04:00;10.40;99.90
31769;DHT22;18342;52.132;21.048;2022-11-12T02:06:26;10.40;99.90
31769;DHT22;18342;52.132;21.048;2022-11-12T02:08:52;10.40;99.90
31769;DHT22;18342;52.132;21.048;2022-11-12T02:11:20;10.40;99.90
31769;DHT22;18342;52.132;21.048;2022-11-12T02:13:47;10.40;99.90
31769;DHT22;18342;52.132;21.048;2022-11-12T02:16:33;10.40;99.90
31769;DHT22;18342;52.132;21.048;2022-11-12T02:19:01;10.40;99.90
31769;DHT22;18342;52.132;21.048;2022-11-12T02:21:27;10.40;99.90
31769;DHT22;18342;52.132;21.048;2022-11-12T02:26:34;10.40;99.90
31769;DHT22;18342;52.132;21.048;2022-11-12T02:29:01;10.40;99.90
31769;DHT22;18342;52.132;21.048;2022-11-12T02:31:27;10.40;99.90
31769;DHT22;18342;52.132;21.048;2022-11-12T02:33:53;10.40;99.90
31769;DHT22;18342;52.132;21.048;2022-11-12T02:36:19;10.40;99.90
31769;DHT22;18342;52.132;21.048;2022-11-12T02:38:45;10.40;99.90
31769;DHT22;18342;52.132;21.048;2022-11-12T02:41:10;10.40;99.90
31769;DHT22;18342;52.132;21.048;2022-11-12T02:43:36;10.40;99.90
31769;DHT22;18342;52.132;21.048;2022-11-12T02:46:02;10.40;99.90
31769;DHT22;18342;52.132;21.048;2022-11-12T02:48:27;10.40;99.90
31769;DHT22;18342;52.132;21.048;2022-11-12T02:50:53;10.40;99.90
31769;DHT22;18342;52.132;21.048;2022-11-12T02:53:19;10.40;99.90
31769;DHT22;18342;52.132;21.048;2022-11-12T02:55:44;10.40;99.90
31769;DHT22;18342;52.132;21.048;2022-11-12T02:58:10;10.40;99.90
31769;DHT22;18342;52.132;21.048;2022-11-12T03:00:36;10.40;99.90
31769;DHT22;18342;52.132;21.048;2022-11-12T03:03:01;10.40;99.90
31769;DHT22;18342;52.132;21.048;2022-11-12T03:05:29;10.40;99.90
31769;DHT22;18342;52.132;21.048;2022-11-12T03:07:57;10.40;99.90
31769;DHT22;18342;52.132;21.048;2022-11-12T03:10:24;10.40;99.90
31769;DHT22;18342;52.132;21.048;2022-11-12T03:12:50;10.40;99.90
31769;DHT22;18342;52.132;21.048;2022-11-12T03:15:15;10.40;99.90
31769;DHT22;18342;52.132;21.048;2022-11-12T03:17:42;10.50;99.90
31769;DHT22;18342;52.132;21.048;2022-11-12T03:20:12;10.40;99.90
31769;DHT22;18342;52.132;21.048;2022-11-12T03:22:39;10.40;99.90
31769;DHT22;18342;52.132;21.048;2022-11-12T03:25:06;10.40;99.90
31769;DHT22;18342;52.132;21.048;2022-11-12T03:27:32;10.40;99.90
31769;DHT22;18342;52.132;21.048;2022-11-12T03:29:58;10.40;99.90
31769;DHT22;18342;52.132;21.048;2022-11-12T03:32:24;10.40;99.90
31769;DHT22;18342;52.132;21.048;2022-11-12T03:34:50;10.40;99.90
31769;DHT22;18342;52.132;21.048;2022-11-12T03:37:16;10.40;99.90
31769;DHT22;18342;52.132;21.048;2022-11-12T03:39:41;10.40;99.90
31769;DHT22;18342;52.132;21.048;2022-11-12T03:42:07;10.40;99.90
31769;DHT22;18342;52.132;21.048;2022-11-12T03:44:33;10.40;99.90
31769;DHT22;18342;52.132;21.048;2022-11-12T03:46:59;10.40;99.90
31769;DHT22;18342;52.132;21.048;2022-11-12T03:49:25;10.40;99.90
31769;DHT22;18342;52.132;21.048;2022-11-12T03:51:51;10.40;99.90
31769;DHT22;18342;52.132;21.048;2022-11-12T03:54:17;10.30;99.90
31769;DHT22;18342;52.132;21.048;2022-11-12T03:56:42;10.40;99.90
31769;DHT22;18342;52.132;21.048;2022-11-12T03:59:08;10.30;99.90
31769;DHT22;18342;52.132;21.048;2022-11-12T04:01:34;10.30;99.90
31769;DHT22;18342;52.132;21.048;2022-11-12T04:04:00;10.30;99.90
31769;DHT22;18342;52.132;21.048;2022-11-12T04:06:26;10.30;99.90
31769;DHT22;18342;52.132;21.048;2022-11-12T04:09:10;10.30;99.90
31769;DHT22;18342;52.132;21.048;2022-11-12T04:11:36;10.30;99.90
31769;DHT22;18342;52.132;21.048;2022-11-12T04:14:01;10.30;99.90
31769;DHT22;18342;52.132;21.048;2022-11-12T04:16:27;10.30;99.90
31769;DHT22;18342;52.132;21.048;2022-11-12T04:19:12;10.30;99.90
31769;DHT22;18342;52.132;21.048;2022-11-12T04:22:08;10.30;99.90
31769;DHT22;18342;52.132;21.048;2022-11-12T04:24:39;10.30;99.90
31769;DHT22;18342;52.132;21.048;2022-11-12T04:27:25;10.30;99.90
31769;DHT22;18342;52.132;21.048;2022-11-12T04:29:51;10.30;99.90
31769;DHT22;18342;52.132;21.048;2022-11-12T04:32:48;10.30;99.90
31769;DHT22;18342;52.132;21.048;2022-11-12T04:35:14;10.30;99.90
31769;DHT22;18342;52.132;21.048;2022-11-12T04:37:40;10.30;99.90
31769;DHT22;18342;52.132;21.048;2022-11-12T04:40:11;10.30;99.90
31769;DHT22;18342;52.132;21.048;2022-11-12T04:42:56;10.30;99.90
31769;DHT22;18342;52.132;21.048;2022-11-12T04:45:45;10.30;99.90
31769;DHT22;18342;52.132;21.048;2022-11-12T04:48:12;10.30;99.90
31769;DHT22;18342;52.132;21.048;2022-11-12T04:50:38;10.30;99.90
31769;DHT22;18342;52.132;21.048;2022-11-12T04:53:04;10.40;99.90
31769;DHT22;18342;52.132;21.048;2022-11-12T04:55:31;10.40;99.90
31769;DHT22;18342;52.132;21.048;2022-11-12T04:57:56;10.40;99.90
31769;DHT22;18342;52.132;21.048;2022-11-12T05:00:22;10.40;99.90
31769;DHT22;18342;52.132;21.048;2022-11-12T05:02:49;10.40;99.90
31769;DHT22;18342;52.132;21.048;2022-11-12T05:05:15;10.40;99.90
31769;DHT22;18342;52.132;21.048;2022-11-12T05:07:40;10.30;99.90
31769;DHT22;18342;52.132;21.048;2022-11-12T05:10:07;10.40;99.90
31769;DHT22;18342;52.132;21.048;2022-11-12T05:12:32;10.30;99.90
31769;DHT22;18342;52.132;21.048;2022-11-12T05:14:58;10.30;99.90
31769;DHT22;18342;52.132;21.048;2022-11-12T05:17:24;10.30;99.90
31769;DHT22;18342;52.132;21.048;2022-11-12T05:19:50;10.30;99.90
31769;DHT22;18342;52.132;21.048;2022-11-12T05:22:15;10.20;99.90
31769;DHT22;18342;52.132;21.048;2022-11-12T05:24:42;10.20;99.90
31769;DHT22;18342;52.132;21.048;2022-11-12T05:27:14;10.20;99.90
31769;DHT22;18342;52.132;21.048;2022-11-12T05:29:40;10.20;99.90
31769;DHT22;18342;52.132;21.048;2022-11-12T05:32:08;10.20;99.90
31769;DHT22;18342;52.132;21.048;2022-11-12T05:34:34;10.30;99.90
31769;DHT22;18342;52.132;21.048;2022-11-12T05:37:01;10.20;99.90
31769;DHT22;18342;52.132;21.048;2022-11-12T05:39:27;10.20;99.90
31769;DHT22;18342;52.132;21.048;2022-11-12T05:41:53;10.20;99.90
31769;DHT22;18342;52.132;21.048;2022-11-12T05:44:19;10.20;99.90
31769;DHT22;18342;52.132;21.048;2022-11-12T05:46:44;10.20;99.90
31769;DHT22;18342;52.132;21.048;2022-11-12T05:49:10;10.20;99.90
31769;DHT22;18342;52.132;21.048;2022-11-12T05:51:36;10.20;99.90
31769;DHT22;18342;52.132;21.048;2022-11-12T05:54:02;10.10;99.90
31769;DHT22;18342;52.132;21.048;2022-11-12T05:56:28;10.10;99.90
31769;DHT22;18342;52.132;21.048;2022-11-12T05:58:54;10.10;99.90
31769;DHT22;18342;52.132;21.048;2022-11-12T06:01:20;10.10;99.90
31769;DHT22;18342;52.132;21.048;2022-11-12T06:03:46;10.10;99.90
31769;DHT22;18342;52.132;21.048;2022-11-12T06:06:12;10.10;99.90
31769;DHT22;18342;52.132;21.048;2022-11-12T06:08:37;10.10;99.90
31769;DHT22;18342;52.132;21.048;2022-11-12T06:11:03;10.10;99.90
31769;DHT22;18342;52.132;21.048;2022-11-12T06:13:29;10.10;99.90
31769;DHT22;18342;52.132;21.048;2022-11-12T06:15:55;10.00;99.90
31769;DHT22;18342;52.132;21.048;2022-11-12T06:18:22;10.10;99.90
31769;DHT22;18342;52.132;21.048;2022-11-12T06:20:49;10.10;99.90
31769;DHT22;18342;52.132;21.048;2022-11-12T06:23:35;10.00;99.90
31769;DHT22;18342;52.132;21.048;2022-11-12T06:26:01;10.10;99.90
31769;DHT22;18342;52.132;21.048;2022-11-12T06:28:27;10.00;99.90
31769;DHT22;18342;52.132;21.048;2022-11-12T06:30:53;10.10;99.90
31769;DHT22;18342;52.132;21.048;2022-11-12T06:33:19;10.00;99.90
31769;DHT22;18342;52.132;21.048;2022-11-12T06:35:44;10.00;99.90
31769;DHT22;18342;52.132;21.048;2022-11-12T06:38:10;10.00;99.90
31769;DHT22;18342;52.132;21.048;2022-11-12T06:40:36;9.90;99.90
31769;DHT22;18342;52.132;21.048;2022-11-12T06:43:02;9.90;99.90
31769;DHT22;18342;52.132;21.048;2022-11-12T06:45:28;9.90;99.90
31769;DHT22;18342;52.132;21.048;2022-11-12T06:47:57;9.90;99.90
31769;DHT22;18342;52.132;21.048;2022-11-12T06:50:23;9.90;99.90
31769;DHT22;18342;52.132;21.048;2022-11-12T06:52:49;9.90;99.90
31769;DHT22;18342;52.132;21.048;2022-11-12T06:55:15;9.90;99.90
31769;DHT22;18342;52.132;21.048;2022-11-12T06:57:41;9.90;99.90
31769;DHT22;18342;52.132;21.048;2022-11-12T07:00:08;9.90;99.90
31769;DHT22;18342;52.132;21.048;2022-11-12T07:02:36;9.90;99.90
31769;DHT22;18342;52.132;21.048;2022-11-12T07:05:02;9.90;99.90
31769;DHT22;18342;52.132;21.048;2022-11-12T07:07:28;9.80;99.90
31769;DHT22;18342;52.132;21.048;2022-11-12T07:09:53;9.80;99.90
31769;DHT22;18342;52.132;21.048;2022-11-12T07:12:19;9.80;99.90
31769;DHT22;18342;52.132;21.048;2022-11-12T07:14:45;9.70;99.90
31769;DHT22;18342;52.132;21.048;2022-11-12T07:17:11;9.80;99.90
31769;DHT22;18342;52.132;21.048;2022-11-12T07:19:36;9.80;99.90
31769;DHT22;18342;52.132;21.048;2022-11-12T07:22:02;9.80;99.90
31769;DHT22;18342;52.132;21.048;2022-11-12T07:24:28;9.70;99.90
31769;DHT22;18342;52.132;21.048;2022-11-12T07:26:54;9.70;99.90
31769;DHT22;18342;52.132;21.048;2022-11-12T07:29:19;9.70;99.90
31769;DHT22;18342;52.132;21.048;2022-11-12T07:31:45;9.70;99.90
31769;DHT22;18342;52.132;21.048;2022-11-12T07:34:11;9.70;99.90
31769;DHT22;18342;52.132;21.048;2022-11-12T07:36:36;9.60;99.90
31769;DHT22;18342;52.132;21.048;2022-11-12T07:39:02;9.60;99.90
31769;DHT22;18342;52.132;21.048;2022-11-12T07:41:28;9.60;99.90
31769;DHT22;18342;52.132;21.048;2022-11-12T07:43:53;9.60;99.90
31769;DHT22;18342;52.132;21.048;2022-11-12T07:46:22;9.60;99.90
31769;DHT22;18342;52.132;21.048;2022-11-12T07:48:48;9.60;99.90
31769;DHT22;18342;52.132;21.048;2022-11-12T07:51:17;9.60;99.90
31769;DHT22;18342;52.132;21.048;2022-11-12T07:53:43;9.60;99.90
31769;DHT22;18342;52.132;21.048;2022-11-12T07:56:11;9.60;99.90
31769;DHT22;18342;52.132;21.048;2022-11-12T07:58:37;9.60;99.90
31769;DHT22;18342;52.132;21.048;2022-11-12T08:03:45;9.60;99.90
31769;DHT22;18342;52.132;21.048;2022-11-12T08:06:10;9.60;99.90
31769;DHT22;18342;52.132;21.048;2022-11-12T08:08:36;9.60;99.90
31769;DHT22;18342;52.132;21.048;2022-11-12T08:11:02;9.60;99.90
31769;DHT22;18342;52.132;21.048;2022-11-12T08:13:27;9.50;99.90
31769;DHT22;18342;52.132;21.048;2022-11-12T08:15:59;9.50;99.90
31769;DHT22;18342;52.132;21.048;2022-11-12T08:18:25;9.50;99.90
31769;DHT22;18342;52.132;21.048;2022-11-12T08:20:51;9.50;99.90
31769;DHT22;18342;52.132;21.048;2022-11-12T08:23:17;9.50;99.90
31769;DHT22;18342;52.132;21.048;2022-11-12T08:25:42;9.50;99.90
31769;DHT22;18342;52.132;21.048;2022-11-12T08:28:08;9.50;99.90
31769;DHT22;18342;52.132;21.048;2022-11-12T08:30:34;9.50;99.90
31769;DHT22;18342;52.132;21.048;2022-11-12T08:33:04;9.50;99.90
31769;DHT22;18342;52.132;21.048;2022-11-12T08:35:32;9.60;99.90
31769;DHT22;18342;52.132;21.048;2022-11-12T08:38:05;9.60;99.90
31769;DHT22;18342;52.132;21.048;2022-11-12T08:40:32;9.60;99.90
31769;DHT22;18342;52.132;21.048;2022-11-12T08:45:24;9.60;99.90
31769;DHT22;18342;52.132;21.048;2022-11-12T08:47:49;9.60;99.90
31769;DHT22;18342;52.132;21.048;2022-11-12T08:50:15;9.70;99.90
31769;DHT22;18342;52.132;21.048;2022-11-12T08:52:41;9.70;99.90
31769;DHT22;18342;52.132;21.048;2022-11-12T08:55:07;9.70;99.90
31769;DHT22;18342;52.132;21.048;2022-11-12T08:57:39;9.70;99.90
31769;DHT22;18342;52.132;21.048;2022-11-12T09:00:06;9.70;99.90
31769;DHT22;18342;52.132;21.048;2022-11-12T09:02:32;9.70;99.90
31769;DHT22;18342;52.132;21.048;2022-11-12T09:04:57;9.70;99.90
31769;DHT22;18342;52.132;21.048;2022-11-12T09:07:23;9.60;99.90
31769;DHT22;18342;52.132;21.048;2022-11-12T09:09:48;9.60;99.90
31769;DHT22;18342;52.132;21.048;2022-11-12T09:12:14;9.60;99.90
31769;DHT22;18342;52.132;21.048;2022-11-12T09:14:44;9.60;99.90
31769;DHT22;18342;52.132;21.048;2022-11-12T09:17:10;9.70;99.90
31769;DHT22;18342;52.132;21.048;2022-11-12T09:19:36;9.70;99.90
31769;DHT22;18342;52.132;21.048;2022-11-12T09:22:01;9.70;99.90
31769;DHT22;18342;52.132;21.048;2022-11-12T09:24:27;9.70;99.90
31769;DHT22;18342;52.132;21.048;2022-11-12T09:26:53;9.70;99.90
31769;DHT22;18342;52.132;21.048;2022-11-12T09:29:19;9.80;99.90
31769;DHT22;18342;52.132;21.048;2022-11-12T09:31:45;9.70;99.90
31769;DHT22;18342;52.132;21.048;2022-11-12T09:34:11;9.80;99.90
31769;DHT22;18342;52.132;21.048;2022-11-12T09:36:38;9.80;99.90
31769;DHT22;18342;52.132;21.048;2022-11-12T09:39:04;9.70;99.90
31769;DHT22;18342;52.132;21.048;2022-11-12T09:41:37;9.80;99.90
31769;DHT22;18342;52.132;21.048;2022-11-12T09:44:17;9.80;99.90
31769;DHT22;18342;52.132;21.048;2022-11-12T09:47:22;9.80;99.90
31769;DHT22;18342;52.132;21.048;2022-11-12T09:49:49;9.70;99.90
31769;DHT22;18342;52.132;21.048;2022-11-12T09:52:22;9.70;99.90
31769;DHT22;18342;52.132;21.048;2022-11-12T09:55:00;9.80;99.90
31769;DHT22;18342;52.132;21.048;2022-11-12T09:57:27;9.80;99.90
31769;DHT22;18342;52.132;21.048;2022-11-12T09:59:53;9.80;99.90
31769;DHT22;18342;52.132;21.048;2022-11-12T10:05:33;9.80;99.90
31769;DHT22;18342;52.132;21.048;2022-11-12T10:14:06;9.80;99.90
31769;DHT22;18342;52.132;21.048;2022-11-12T10:24:36;9.80;99.90
31769;DHT22;18342;52.132;21.048;2022-11-12T10:27:18;9.80;99.90
31769;DHT22;18342;52.132;21.048;2022-11-12T10:30:05;9.80;99.90
31769;DHT22;18342;52.132;21.048;2022-11-12T10:32:33;9.80;99.90
31769;DHT22;18342;52.132;21.048;2022-11-12T10:34:59;9.80;99.90
31769;DHT22;18342;52.132;21.048;2022-11-12T10:37:40;9.80;99.90
31769;DHT22;18342;52.132;21.048;2022-11-12T10:40:37;9.80;99.90
31769;DHT22;18342;52.132;21.048;2022-11-12T10:43:09;9.80;99.90
31769;DHT22;18342;52.132;21.048;2022-11-12T10:45:46;9.70;99.90
31769;DHT22;18342;52.132;21.048;2022-11-12T10:48:27;9.80;99.90
31769;DHT22;18342;52.132;21.048;2022-11-12T10:50:58;9.80;99.90
31769;DHT22;18342;52.132;21.048;2022-11-12T10:53:36;9.80;99.90
31769;DHT22;18342;52.132;21.048;2022-11-12T10:56:21;9.80;99.90
31769;DHT22;18342;52.132;21.048;2022-11-12T10:59:13;9.80;99.90
31769;DHT22;18342;52.132;21.048;2022-11-12T11:01:39;9.70;99.90
31769;DHT22;18342;52.132;21.048;2022-11-12T11:04:07;9.70;99.90
31769;DHT22;18342;52.132;21.048;2022-11-12T11:06:39;9.70;99.90
31769;DHT22;18342;52.132;21.048;2022-11-12T11:11:38;9.70;99.90
31769;DHT22;18342;52.132;21.048;2022-11-12T11:16:49;9.70;99.90
31769;DHT22;18342;52.132;21.048;2022-11-12T11:19:15;9.70;99.90
31769;DHT22;18342;52.132;21.048;2022-11-12T11:27:46;9.80;99.90
31769;DHT22;18342;52.132;21.048;2022-11-12T11:30:19;9.80;99.90
31769;DHT22;18342;52.132;21.048;2022-11-12T11:38:32;9.70;99.90
31769;DHT22;18342;52.132;21.048;2022-11-12T11:56:48;9.80;99.90
31769;DHT22;18342;52.132;21.048;2022-11-12T11:59:55;9.80;99.90
31769;DHT22;18342;52.132;21.048;2022-11-12T12:18:59;9.90;99.90
31769;DHT22;18342;52.132;21.048;2022-11-12T12:21:20;9.90;99.90
31769;DHT22;18342;52.132;21.048;2022-11-12T12:23:57;9.90;99.90
31769;DHT22;18342;52.132;21.048;2022-11-12T12:26:47;9.90;99.90
31769;DHT22;18342;52.132;21.048;2022-11-12T12:30:03;9.90;99.90
31769;DHT22;18342;52.132;21.048;2022-11-12T12:34:58;9.90;99.90
31769;DHT22;18342;52.132;21.048;2022-11-12T12:38:19;9.90;99.90
31769;DHT22;18342;52.132;21.048;2022-11-12T12:40:22;9.90;99.90
31769;DHT22;18342;52.132;21.048;2022-11-12T12:48:06;10.00;99.90
31769;DHT22;18342;52.132;21.048;2022-11-12T12:50:35;10.00;99.90
31769;DHT22;18342;52.132;21.048;2022-11-12T12:55:55;10.00;99.90
31769;DHT22;18342;52.132;21.048;2022-11-12T13:01:25;10.00;99.90
31769;DHT22;18342;52.132;21.048;2022-11-12T13:04:05;10.00;99.90
31769;DHT22;18342;52.132;21.048;2022-11-12T13:06:51;10.00;99.90
31769;DHT22;18342;52.132;21.048;2022-11-12T13:17:02;9.90;99.90
31769;DHT22;18342;52.132;21.048;2022-11-12T13:25:43;9.90;99.90
31769;DHT22;18342;52.132;21.048;2022-11-12T13:45:48;9.90;99.90
31769;DHT22;18342;52.132;21.048;2022-11-12T13:48:38;10.00;99.90
31769;DHT22;18342;52.132;21.048;2022-11-12T13:51:20;10.00;99.90
31769;DHT22;18342;52.132;21.048;2022-11-12T13:53:47;10.00;99.90
31769;DHT22;18342;52.132;21.048;2022-11-12T13:56:30;10.00;99.90
31769;DHT22;18342;52.132;21.048;2022-11-12T13:59:16;10.00;99.90
31769;DHT22;18342;52.132;21.048;2022-11-12T14:01:43;10.00;99.90
31769;DHT22;18342;52.132;21.048;2022-11-12T14:04:14;9.90;99.90
31769;DHT22;18342;52.132;21.048;2022-11-12T14:07:11;9.90;99.90
31769;DHT22;18342;52.132;21.048;2022-11-12T14:09:42;9.90;99.90
31769;DHT22;18342;52.132;21.048;2022-11-12T14:22:51;9.90;99.90
31769;DHT22;18342;52.132;21.048;2022-11-12T14:25:22;9.90;99.90
31769;DHT22;18342;52.132;21.048;2022-11-12T14:27:50;9.90;99.90
31769;DHT22;18342;52.132;21.048;2022-11-12T14:30:17;9.90;99.90
31769;DHT22;18342;52.132;21.048;2022-11-12T14:32:45;9.90;99.90
31769;DHT22;18342;52.132;21.048;2022-11-12T14:38:05;9.90;99.90
31769;DHT22;18342;52.132;21.048;2022-11-12T14:40:53;10.00;99.90
31769;DHT22;18342;52.132;21.048;2022-11-12T14:45:57;10.00;99.90
31769;DHT22;18342;52.132;21.048;2022-11-12T14:48:23;10.00;99.90
31769;DHT22;18342;52.132;21.048;2022-11-12T14:51:01;10.00;99.90
31769;DHT22;18342;52.132;21.048;2022-11-12T14:53:44;9.90;99.90
31769;DHT22;18342;52.132;21.048;2022-11-12T14:56:44;10.00;99.90
31769;DHT22;18342;52.132;21.048;2022-11-12T14:59:13;9.90;99.90
31769;DHT22;18342;52.132;21.048;2022-11-12T15:02:00;9.90;99.90
31769;DHT22;18342;52.132;21.048;2022-11-12T15:04:35;9.90;99.90
31769;DHT22;18342;52.132;21.048;2022-11-12T15:07:01;9.90;99.90
31769;DHT22;18342;52.132;21.048;2022-11-12T15:09:33;9.90;99.90
31769;DHT22;18342;52.132;21.048;2022-11-12T15:11:59;9.90;99.90
31769;DHT22;18342;52.132;21.048;2022-11-12T15:14:24;9.90;99.90
31769;DHT22;18342;52.132;21.048;2022-11-12T15:16:51;10.00;99.90
31769;DHT22;18342;52.132;21.048;2022-11-12T15:21:59;10.00;99.90
31769;DHT22;18342;52.132;21.048;2022-11-12T15:24:35;9.90;99.90
31769;DHT22;18342;52.132;21.048;2022-11-12T15:30:16;10.00;99.90
31769;DHT22;18342;52.132;21.048;2022-11-12T15:32:43;10.00;99.90
31769;DHT22;18342;52.132;21.048;2022-11-12T15:35:39;10.00;99.90
31769;DHT22;18342;52.132;21.048;2022-11-12T15:38:32;9.90;99.90
31769;DHT22;18342;52.132;21.048;2022-11-12T15:41:00;10.00;99.90
31769;DHT22;18342;52.132;21.048;2022-11-12T15:43:33;9.90;99.90
31769;DHT22;18342;52.132;21.048;2022-11-12T15:46:00;10.00;99.90
31769;DHT22;18342;52.132;21.048;2022-11-12T15:48:26;10.00;99.90
31769;DHT22;18342;52.132;21.048;2022-11-12T15:50:53;10.00;99.90
31769;DHT22;18342;52.132;21.048;2022-11-12T15:53:19;10.00;99.90
31769;DHT22;18342;52.132;21.048;2022-11-12T15:55:45;10.00;99.90
31769;DHT22;18342;52.132;21.048;2022-11-12T15:58:19;10.00;99.90
31769;DHT22;18342;52.132;21.048;2022-11-12T16:00:51;10.00;99.90
31769;DHT22;18342;52.132;21.048;2022-11-12T16:03:19;10.00;99.90
31769;DHT22;18342;52.132;21.048;2022-11-12T16:05:45;9.90;99.90
31769;DHT22;18342;52.132;21.048;2022-11-12T16:08:11;9.90;99.90
31769;DHT22;18342;52.132;21.048;2022-11-12T16:10:39;9.90;99.90
31769;DHT22;18342;52.132;21.048;2022-11-12T16:13:06;10.00;99.90
31769;DHT22;18342;52.132;21.048;2022-11-12T16:15:32;10.00;99.90
31769;DHT22;18342;52.132;21.048;2022-11-12T16:17:58;9.90;99.90
31769;DHT22;18342;52.132;21.048;2022-11-12T16:20:32;9.90;99.90
31769;DHT22;18342;52.132;21.048;2022-11-12T16:22:58;9.90;99.90
31769;DHT22;18342;52.132;21.048;2022-11-12T16:25:27;9.90;99.90
31769;DHT22;18342;52.132;21.048;2022-11-12T16:27:55;9.90;99.90
31769;DHT22;18342;52.132;21.048;2022-11-12T16:30:24;9.90;99.90
31769;DHT22;18342;52.132;21.048;2022-11-12T16:32:50;9.90;99.90
31769;DHT22;18342;52.132;21.048;2022-11-12T16:35:16;9.90;99.90
31769;DHT22;18342;52.132;21.048;2022-11-12T16:37:43;9.90;99.90
31769;DHT22;18342;52.132;21.048;2022-11-12T16:40:14;9.90;99.90
31769;DHT22;18342;52.132;21.048;2022-11-12T16:42:40;9.90;99.90
31769;DHT22;18342;52.132;21.048;2022-11-12T16:45:12;9.90;99.90
31769;DHT22;18342;52.132;21.048;2022-11-12T16:47:49;9.90;99.90
31769;DHT22;18342;52.132;21.048;2022-11-12T16:50:18;9.90;99.90
31769;DHT22;18342;52.132;21.048;2022-11-12T16:52:45;9.90;99.90
31769;DHT22;18342;52.132;21.048;2022-11-12T16:55:10;9.90;99.90
31769;DHT22;18342;52.132;21.048;2022-11-12T16:57:36;10.00;99.90
31769;DHT22;18342;52.132;21.048;2022-11-12T17:00:04;9.90;99.90
31769;DHT22;18342;52.132;21.048;2022-11-12T17:02:29;9.90;99.90
31769;DHT22;18342;52.132;21.048;2022-11-12T17:04:55;10.00;99.90
31769;DHT22;18342;52.132;21.048;2022-11-12T17:07:21;10.00;99.90
31769;DHT22;18342;52.132;21.048;2022-11-12T17:09:46;10.00;99.90
31769;DHT22;18342;52.132;21.048;2022-11-12T17:12:12;10.00;99.90
31769;DHT22;18342;52.132;21.048;2022-11-12T17:14:38;10.00;99.90
31769;DHT22;18342;52.132;21.048;2022-11-12T17:17:03;10.00;99.90
31769;DHT22;18342;52.132;21.048;2022-11-12T17:19:29;10.00;99.90
31769;DHT22;18342;52.132;21.048;2022-11-12T17:21:55;10.00;99.90
31769;DHT22;18342;52.132;21.048;2022-11-12T17:24:20;10.00;99.90
31769;DHT22;18342;52.132;21.048;2022-11-12T17:26:46;10.00;99.90
31769;DHT22;18342;52.132;21.048;2022-11-12T17:29:12;10.00;99.90
31769;DHT22;18342;52.132;21.048;2022-11-12T17:31:37;10.00;99.90
31769;DHT22;18342;52.132;21.048;2022-11-12T17:34:04;10.00;99.90
31769;DHT22;18342;52.132;21.048;2022-11-12T17:36:31;10.00;99.90
31769;DHT22;18342;52.132;21.048;2022-11-12T17:38:58;10.00;99.90
31769;DHT22;18342;52.132;21.048;2022-11-12T17:41:25;10.00;99.90
31769;DHT22;18342;52.132;21.048;2022-11-12T17:43:56;10.00;99.90
31769;DHT22;18342;52.132;21.048;2022-11-12T17:46:23;10.00;99.90
31769;DHT22;18342;52.132;21.048;2022-11-12T17:48:48;9.90;99.90
31769;DHT22;18342;52.132;21.048;2022-11-12T17:51:20;9.90;99.90
31769;DHT22;18342;52.132;21.048;2022-11-12T17:53:46;9.90;99.90
31769;DHT22;18342;52.132;21.048;2022-11-12T17:56:14;9.90;99.90